Terminal Aerodrome Forecast
Issued by NWS

Home | Current Version | Previous Version | Text Only | Print | Product List | Glossary On
Versions: 1 2 3 4 5 6 7 8 9 10 11 12 13 14 15 16 17 18 19 20 21 22 23
322
FTUS43 KDVN 131138
TAFBRL
TAF
KBRL 131138Z 1312/1412 33005KT P6SM SCT250
     FM132000 VRB03KT P6SM OVC100
     FM140400 13005KT 5SM -SN OVC050
     FM140700 13015KT 2SM -SN OVC025=

USA.gov is the U.S. government's official web portal to all federal, state and local government web resources and services.